world map with YMN marked

YMN - Airport

This information may not be accurate or current and is not valid for navigation or flight planning. No warranty of fitness for any purpose is made or implied.

flag of Newfoundland and Labradorflag of Canada

Donate via PayPal

Additional information is available on the NEW Great Circle Mapper

Location
City:  Makkovik, Newfoundland and Labrador, Canada
Name:Makkovik Airport
ICAO / IATA:CYFT / YMN

Details
Type:Airport (Airfield)
Use:Public/Civil
Latitude:55°04'38"N (55.077222)
Longitude:59°11'16"W (-59.187777)
Elevation:231 ft (70 m)
Runways:1
Longest:2592 ft (790 m)

Time
Timezone:UTC+30:38 (DST+33:38)
Local Time:

Weather
METAR:CYFT  041400Z 23013KT 15SM FEW120 BKN240 M14/M18 A2978 RMK AC2CS5 SLP093

Related Locations
Nearby:
Farthest:YCSK: 11585 mi / 18644 km
Casey Station [Casey Station Skiway], Wilkes Land, AQ

Find:

   beyond  
but within

Other Information
Maps:
Sources:

  


 


Great Circle Mapper   Great Circle Mapper
Great Circle Mapper FAQ   Great Circle Mapper FAQ
  Karl's Home Page
KLSē   KLSē Home
   GC on Facebook
Airlines of the World   Airlines of the World
Donate via PayPal


Copyright © 2004-2020, Karl L. Swartz. All rights reserved.
All trademarks mentioned herein belong to their respective owners.

Please see credits for attribution and copyright information.

Karl Swartz <karl@kls2.com>
  Powered by FreeBSD
Valid HTML 4.01!
Labeled with ICRA
hCard Microformat
Geo Microformat